sensor_id;sensor_type;location;lat;lon;timestamp;pressure;altitude;pressure_sealevel;temperature;humidity
61478;BME280;47345;52.334;10.392;2023-01-19T00:01:45;99365.19;;;-0.87;79.98
61478;BME280;47345;52.334;10.392;2023-01-19T00:04:16;99369.88;;;-0.88;79.84
61478;BME280;47345;52.334;10.392;2023-01-19T00:06:47;99364.52;;;-0.88;80.09
61478;BME280;47345;52.334;10.392;2023-01-19T00:09:18;99369.41;;;-0.89;80.18
61478;BME280;47345;52.334;10.392;2023-01-19T00:11:50;99370.95;;;-0.90;80.21
61478;BME280;47345;52.334;10.392;2023-01-19T00:14:24;99374.31;;;-0.90;80.03
61478;BME280;47345;52.334;10.392;2023-01-19T00:16:54;99374.08;;;-0.89;80.19
61478;BME280;47345;52.334;10.392;2023-01-19T00:19:25;99371.40;;;-0.89;80.11
61478;BME280;47345;52.334;10.392;2023-01-19T00:21:56;99376.02;;;-0.88;80.21
61478;BME280;47345;52.334;10.392;2023-01-19T00:24:26;99377.30;;;-0.89;80.11
61478;BME280;47345;52.334;10.392;2023-01-19T00:26:56;99376.80;;;-0.89;80.25
61478;BME280;47345;52.334;10.392;2023-01-19T00:29:27;99383.48;;;-0.88;80.40
61478;BME280;47345;52.334;10.392;2023-01-19T00:32:01;99385.55;;;-0.87;80.24
61478;BME280;47345;52.334;10.392;2023-01-19T00:34:32;99378.64;;;-0.86;80.28
61478;BME280;47345;52.334;10.392;2023-01-19T00:37:07;99374.08;;;-0.85;80.40
61478;BME280;47345;52.334;10.392;2023-01-19T00:39:38;99373.55;;;-0.85;80.16
61478;BME280;47345;52.334;10.392;2023-01-19T00:42:09;99378.17;;;-0.85;80.34
61478;BME280;47345;52.334;10.392;2023-01-19T00:44:58;99375.15;;;-0.84;80.26
61478;BME280;47345;52.334;10.392;2023-01-19T00:47:29;99375.05;;;-0.83;80.52
61478;BME280;47345;52.334;10.392;2023-01-19T00:50:00;99377.44;;;-0.82;80.64
61478;BME280;47345;52.334;10.392;2023-01-19T00:52:30;99375.23;;;-0.81;80.66
61478;BME280;47345;52.334;10.392;2023-01-19T00:55:01;99375.83;;;-0.80;80.59
61478;BME280;47345;52.334;10.392;2023-01-19T00:57:32;99380.36;;;-0.79;80.47
61478;BME280;47345;52.334;10.392;2023-01-19T01:00:03;99375.46;;;-0.78;80.50
61478;BME280;47345;52.334;10.392;2023-01-19T01:02:35;99376.67;;;-0.78;80.32
61478;BME280;47345;52.334;10.392;2023-01-19T01:05:07;99376.30;;;-0.78;80.50
61478;BME280;47345;52.334;10.392;2023-01-19T01:07:38;99383.59;;;-0.77;80.45
61478;BME280;47345;52.334;10.392;2023-01-19T01:10:11;99379.86;;;-0.78;80.22
61478;BME280;47345;52.334;10.392;2023-01-19T01:12:43;99378.95;;;-0.78;80.50
61478;BME280;47345;52.334;10.392;2023-01-19T01:15:27;99384.79;;;-0.77;80.39
61478;BME280;47345;52.334;10.392;2023-01-19T01:17:58;99386.30;;;-0.76;80.44
61478;BME280;47345;52.334;10.392;2023-01-19T01:20:28;99388.31;;;-0.77;80.34
61478;BME280;47345;52.334;10.392;2023-01-19T01:23:02;99388.48;;;-0.77;80.41
61478;BME280;47345;52.334;10.392;2023-01-19T01:25:33;99386.71;;;-0.77;80.43
61478;BME280;47345;52.334;10.392;2023-01-19T01:28:06;99385.50;;;-0.77;80.40
61478;BME280;47345;52.334;10.392;2023-01-19T01:30:37;99391.44;;;-0.77;80.61
61478;BME280;47345;52.334;10.392;2023-01-19T01:33:09;99392.51;;;-0.77;80.45
61478;BME280;47345;52.334;10.392;2023-01-19T01:35:41;99395.39;;;-0.78;80.21
61478;BME280;47345;52.334;10.392;2023-01-19T01:38:12;99396.06;;;-0.77;80.53
61478;BME280;47345;52.334;10.392;2023-01-19T01:40:43;99399.80;;;-0.77;80.38
61478;BME280;47345;52.334;10.392;2023-01-19T01:43:15;99403.83;;;-0.76;80.46
61478;BME280;47345;52.334;10.392;2023-01-19T01:45:47;99400.91;;;-0.75;80.44
61478;BME280;47345;52.334;10.392;2023-01-19T01:48:19;99402.19;;;-0.74;80.61
61478;BME280;47345;52.334;10.392;2023-01-19T01:50:53;99394.98;;;-0.73;80.42
61478;BME280;47345;52.334;10.392;2023-01-19T01:53:44;99395.00;;;-0.72;80.48
61478;BME280;47345;52.334;10.392;2023-01-19T01:56:18;99395.17;;;-0.72;80.47
61478;BME280;47345;52.334;10.392;2023-01-19T01:58:51;99399.36;;;-0.71;80.27
61478;BME280;47345;52.334;10.392;2023-01-19T02:01:22;99397.52;;;-0.70;80.37
61478;BME280;47345;52.334;10.392;2023-01-19T02:04:10;99397.16;;;-0.70;80.32
61478;BME280;47345;52.334;10.392;2023-01-19T02:06:41;99399.68;;;-0.70;80.48
61478;BME280;47345;52.334;10.392;2023-01-19T02:09:30;99401.48;;;-0.71;80.15
61478;BME280;47345;52.334;10.392;2023-01-19T02:12:20;99397.98;;;-0.71;80.27
61478;BME280;47345;52.334;10.392;2023-01-19T02:15:17;99399.44;;;-0.72;80.21
61478;BME280;47345;52.334;10.392;2023-01-19T02:17:48;99399.13;;;-0.72;80.34
61478;BME280;47345;52.334;10.392;2023-01-19T02:20:21;99393.23;;;-0.72;80.33
61478;BME280;47345;52.334;10.392;2023-01-19T02:22:56;99396.22;;;-0.72;80.22
61478;BME280;47345;52.334;10.392;2023-01-19T02:25:32;99394.66;;;-0.72;80.10
61478;BME280;47345;52.334;10.392;2023-01-19T02:28:04;99388.06;;;-0.72;80.25
61478;BME280;47345;52.334;10.392;2023-01-19T02:30:36;99385.94;;;-0.72;80.16
61478;BME280;47345;52.334;10.392;2023-01-19T02:33:08;99386.17;;;-0.73;80.22
61478;BME280;47345;52.334;10.392;2023-01-19T02:35:39;99388.89;;;-0.73;80.16
61478;BME280;47345;52.334;10.392;2023-01-19T02:38:11;99392.21;;;-0.75;80.20
61478;BME280;47345;52.334;10.392;2023-01-19T02:40:43;99390.58;;;-0.74;80.36
61478;BME280;47345;52.334;10.392;2023-01-19T02:43:17;99390.77;;;-0.74;80.34
61478;BME280;47345;52.334;10.392;2023-01-19T02:45:49;99387.25;;;-0.75;80.21
61478;BME280;47345;52.334;10.392;2023-01-19T02:48:20;99386.77;;;-0.76;80.25
61478;BME280;47345;52.334;10.392;2023-01-19T02:50:53;99382.21;;;-0.76;80.02
61478;BME280;47345;52.334;10.392;2023-01-19T02:53:59;99379.66;;;-0.76;80.41
61478;BME280;47345;52.334;10.392;2023-01-19T02:56:54;99377.73;;;-0.77;80.29
61478;BME280;47345;52.334;10.392;2023-01-19T02:59:39;99372.98;;;-0.76;80.37
61478;BME280;47345;52.334;10.392;2023-01-19T03:02:24;99369.59;;;-0.76;80.28
61478;BME280;47345;52.334;10.392;2023-01-19T03:05:13;99369.62;;;-0.76;80.23
61478;BME280;47345;52.334;10.392;2023-01-19T03:07:53;99369.05;;;-0.76;80.36
61478;BME280;47345;52.334;10.392;2023-01-19T03:10:34;99369.83;;;-0.76;80.33
61478;BME280;47345;52.334;10.392;2023-01-19T03:13:12;99372.48;;;-0.76;80.23
61478;BME280;47345;52.334;10.392;2023-01-19T03:15:47;99375.40;;;-0.76;80.45
61478;BME280;47345;52.334;10.392;2023-01-19T03:18:21;99367.30;;;-0.76;80.28
61478;BME280;47345;52.334;10.392;2023-01-19T03:20:56;99366.44;;;-0.76;80.21
61478;BME280;47345;52.334;10.392;2023-01-19T03:23:31;99363.35;;;-0.76;80.43
61478;BME280;47345;52.334;10.392;2023-01-19T03:26:04;99365.67;;;-0.76;80.40
61478;BME280;47345;52.334;10.392;2023-01-19T03:28:39;99356.84;;;-0.75;80.47
61478;BME280;47345;52.334;10.392;2023-01-19T03:31:14;99360.05;;;-0.75;80.45
61478;BME280;47345;52.334;10.392;2023-01-19T03:33:48;99365.86;;;-0.76;80.49
61478;BME280;47345;52.334;10.392;2023-01-19T03:36:24;99365.33;;;-0.76;80.62
61478;BME280;47345;52.334;10.392;2023-01-19T03:38:58;99364.66;;;-0.76;80.59
61478;BME280;47345;52.334;10.392;2023-01-19T03:41:31;99370.33;;;-0.76;80.66
61478;BME280;47345;52.334;10.392;2023-01-19T03:44:04;99370.49;;;-0.76;80.69
61478;BME280;47345;52.334;10.392;2023-01-19T03:46:35;99369.31;;;-0.77;80.59
61478;BME280;47345;52.334;10.392;2023-01-19T03:49:06;99362.70;;;-0.77;80.50
61478;BME280;47345;52.334;10.392;2023-01-19T03:51:38;99367.23;;;-0.77;80.55
61478;BME280;47345;52.334;10.392;2023-01-19T03:54:10;99367.04;;;-0.78;80.68
61478;BME280;47345;52.334;10.392;2023-01-19T03:56:40;99372.77;;;-0.78;80.72
61478;BME280;47345;52.334;10.392;2023-01-19T03:59:11;99376.60;;;-0.79;80.78
61478;BME280;47345;52.334;10.392;2023-01-19T04:01:45;99371.13;;;-0.80;80.98
61478;BME280;47345;52.334;10.392;2023-01-19T04:04:16;99375.80;;;-0.81;80.67
61478;BME280;47345;52.334;10.392;2023-01-19T04:06:47;99376.94;;;-0.82;80.92
61478;BME280;47345;52.334;10.392;2023-01-19T04:09:18;99377.44;;;-0.83;81.05
61478;BME280;47345;52.334;10.392;2023-01-19T04:11:48;99384.00;;;-0.83;81.13
61478;BME280;47345;52.334;10.392;2023-01-19T04:14:20;99381.45;;;-0.83;81.13
61478;BME280;47345;52.334;10.392;2023-01-19T04:16:50;99382.84;;;-0.82;81.30
61478;BME280;47345;52.334;10.392;2023-01-19T04:19:21;99377.51;;;-0.81;81.56
61478;BME280;47345;52.334;10.392;2023-01-19T04:21:52;99377.40;;;-0.80;81.25
61478;BME280;47345;52.334;10.392;2023-01-19T04:24:23;99376.09;;;-0.78;81.43
61478;BME280;47345;52.334;10.392;2023-01-19T04:26:53;99373.88;;;-0.76;81.45
61478;BME280;47345;52.334;10.392;2023-01-19T04:29:24;99378.85;;;-0.73;81.70
61478;BME280;47345;52.334;10.392;2023-01-19T04:31:55;99378.95;;;-0.71;81.57
61478;BME280;47345;52.334;10.392;2023-01-19T04:34:26;99373.25;;;-0.69;81.58
61478;BME280;47345;52.334;10.392;2023-01-19T04:36:56;99375.27;;;-0.68;81.59
61478;BME280;47345;52.334;10.392;2023-01-19T04:39:27;99370.46;;;-0.67;81.48
61478;BME280;47345;52.334;10.392;2023-01-19T04:41:57;99369.55;;;-0.67;81.33
61478;BME280;47345;52.334;10.392;2023-01-19T04:44:28;99367.61;;;-0.67;81.36
61478;BME280;47345;52.334;10.392;2023-01-19T04:46:59;99367.91;;;-0.68;81.39
61478;BME280;47345;52.334;10.392;2023-01-19T04:49:31;99364.53;;;-0.68;81.34
61478;BME280;47345;52.334;10.392;2023-01-19T04:52:02;99369.42;;;-0.69;81.54
61478;BME280;47345;52.334;10.392;2023-01-19T04:54:35;99363.48;;;-0.69;81.40
61478;BME280;47345;52.334;10.392;2023-01-19T04:57:06;99370.33;;;-0.69;81.35
61478;BME280;47345;52.334;10.392;2023-01-19T04:59:36;99371.38;;;-0.70;81.36
61478;BME280;47345;52.334;10.392;2023-01-19T05:02:07;99373.82;;;-0.70;81.50
61478;BME280;47345;52.334;10.392;2023-01-19T05:04:38;99374.48;;;-0.69;81.33
61478;BME280;47345;52.334;10.392;2023-01-19T05:07:08;99376.37;;;-0.69;81.49
61478;BME280;47345;52.334;10.392;2023-01-19T05:09:39;99377.05;;;-0.68;81.66
61478;BME280;47345;52.334;10.392;2023-01-19T05:12:09;99376.37;;;-0.67;81.74
61478;BME280;47345;52.334;10.392;2023-01-19T05:14:40;99376.81;;;-0.64;81.51
61478;BME280;47345;52.334;10.392;2023-01-19T05:17:11;99379.96;;;-0.64;81.44
61478;BME280;47345;52.334;10.392;2023-01-19T05:19:42;99380.73;;;-0.63;81.48
61478;BME280;47345;52.334;10.392;2023-01-19T05:22:13;99383.23;;;-0.63;81.52
61478;BME280;47345;52.334;10.392;2023-01-19T05:24:44;99375.64;;;-0.62;81.62
61478;BME280;47345;52.334;10.392;2023-01-19T05:27:15;99379.06;;;-0.58;81.57
61478;BME280;47345;52.334;10.392;2023-01-19T05:29:45;99382.39;;;-0.56;81.57
61478;BME280;47345;52.334;10.392;2023-01-19T05:32:16;99384.96;;;-0.54;81.40
61478;BME280;47345;52.334;10.392;2023-01-19T05:34:47;99384.11;;;-0.51;81.54
61478;BME280;47345;52.334;10.392;2023-01-19T05:37:17;99382.94;;;-0.48;81.56
61478;BME280;47345;52.334;10.392;2023-01-19T05:39:48;99384.91;;;-0.47;81.34
61478;BME280;47345;52.334;10.392;2023-01-19T05:42:19;99383.77;;;-0.46;81.39
61478;BME280;47345;52.334;10.392;2023-01-19T05:44:49;99380.52;;;-0.46;81.33
61478;BME280;47345;52.334;10.392;2023-01-19T05:47:21;99380.67;;;-0.46;81.38
61478;BME280;47345;52.334;10.392;2023-01-19T05:49:51;99377.86;;;-0.46;81.28
61478;BME280;47345;52.334;10.392;2023-01-19T05:52:22;99382.27;;;-0.47;81.26
61478;BME280;47345;52.334;10.392;2023-01-19T05:54:53;99380.85;;;-0.47;81.23
61478;BME280;47345;52.334;10.392;2023-01-19T05:57:24;99381.23;;;-0.48;81.55
61478;BME280;47345;52.334;10.392;2023-01-19T05:59:54;99381.26;;;-0.48;81.53
61478;BME280;47345;52.334;10.392;2023-01-19T06:02:25;99373.40;;;-0.48;81.54
61478;BME280;47345;52.334;10.392;2023-01-19T06:04:57;99372.12;;;-0.49;81.44
61478;BME280;47345;52.334;10.392;2023-01-19T06:07:27;99379.21;;;-0.50;81.37
61478;BME280;47345;52.334;10.392;2023-01-19T06:09:57;99387.98;;;-0.50;81.59
61478;BME280;47345;52.334;10.392;2023-01-19T06:12:28;99393.52;;;-0.52;81.43
61478;BME280;47345;52.334;10.392;2023-01-19T06:14:58;99390.92;;;-0.51;81.67
61478;BME280;47345;52.334;10.392;2023-01-19T06:17:29;99389.35;;;-0.50;81.53
61478;BME280;47345;52.334;10.392;2023-01-19T06:20:01;99391.15;;;-0.48;81.83
61478;BME280;47345;52.334;10.392;2023-01-19T06:22:31;99390.32;;;-0.44;81.74
61478;BME280;47345;52.334;10.392;2023-01-19T06:25:02;99401.01;;;-0.40;81.65
61478;BME280;47345;52.334;10.392;2023-01-19T06:27:33;99399.15;;;-0.36;81.75
61478;BME280;47345;52.334;10.392;2023-01-19T06:30:05;99401.91;;;-0.32;81.76
61478;BME280;47345;52.334;10.392;2023-01-19T06:32:36;99406.09;;;-0.27;81.73
61478;BME280;47345;52.334;10.392;2023-01-19T06:35:07;99406.48;;;-0.23;81.68
61478;BME280;47345;52.334;10.392;2023-01-19T06:37:38;99408.65;;;-0.20;81.66
61478;BME280;47345;52.334;10.392;2023-01-19T06:40:11;99409.89;;;-0.16;81.61
61478;BME280;47345;52.334;10.392;2023-01-19T06:42:43;99409.00;;;-0.11;81.56
61478;BME280;47345;52.334;10.392;2023-01-19T06:45:14;99404.49;;;-0.08;81.38
61478;BME280;47345;52.334;10.392;2023-01-19T06:47:47;99403.15;;;-0.05;81.29
61478;BME280;47345;52.334;10.392;2023-01-19T06:50:18;99401.97;;;-0.05;80.95
61478;BME280;47345;52.334;10.392;2023-01-19T06:52:51;99405.53;;;-0.05;81.09
61478;BME280;47345;52.334;10.392;2023-01-19T06:55:21;99405.23;;;-0.03;80.88
61478;BME280;47345;52.334;10.392;2023-01-19T06:57:59;99406.58;;;-0.04;80.85
61478;BME280;47345;52.334;10.392;2023-01-19T07:00:30;99412.18;;;-0.05;80.82
61478;BME280;47345;52.334;10.392;2023-01-19T07:03:00;99413.80;;;-0.05;81.07
61478;BME280;47345;52.334;10.392;2023-01-19T07:05:32;99423.84;;;-0.03;81.01
61478;BME280;47345;52.334;10.392;2023-01-19T07:08:06;99427.67;;;-0.02;81.10
61478;BME280;47345;52.334;10.392;2023-01-19T07:10:36;99432.11;;;0.00;81.07
61478;BME280;47345;52.334;10.392;2023-01-19T07:13:26;99431.75;;;0.03;81.02
61478;BME280;47345;52.334;10.392;2023-01-19T07:15:58;99440.48;;;0.05;81.15
61478;BME280;47345;52.334;10.392;2023-01-19T07:18:28;99449.03;;;0.09;80.97
61478;BME280;47345;52.334;10.392;2023-01-19T07:21:00;99450.52;;;0.13;80.89
61478;BME280;47345;52.334;10.392;2023-01-19T07:23:30;99453.67;;;0.18;80.87
61478;BME280;47345;52.334;10.392;2023-01-19T07:26:01;99457.33;;;0.22;80.75
61478;BME280;47345;52.334;10.392;2023-01-19T07:28:32;99461.94;;;0.25;80.77
61478;BME280;47345;52.334;10.392;2023-01-19T07:31:02;99459.58;;;0.27;80.65
61478;BME280;47345;52.334;10.392;2023-01-19T07:33:33;99457.18;;;0.33;80.36
61478;BME280;47345;52.334;10.392;2023-01-19T07:36:05;99453.88;;;0.35;80.43
61478;BME280;47345;52.334;10.392;2023-01-19T07:38:36;99453.60;;;0.38;80.27
61478;BME280;47345;52.334;10.392;2023-01-19T07:41:08;99451.38;;;0.40;80.15
61478;BME280;47345;52.334;10.392;2023-01-19T07:43:39;99453.41;;;0.42;80.01
61478;BME280;47345;52.334;10.392;2023-01-19T07:46:09;99454.08;;;0.44;80.00
61478;BME280;47345;52.334;10.392;2023-01-19T07:48:39;99456.56;;;0.47;79.98
61478;BME280;47345;52.334;10.392;2023-01-19T07:51:12;99460.50;;;0.48;79.99
61478;BME280;47345;52.334;10.392;2023-01-19T07:53:48;99460.21;;;0.52;80.04
61478;BME280;47345;52.334;10.392;2023-01-19T07:56:18;99460.84;;;0.55;79.88
61478;BME280;47345;52.334;10.392;2023-01-19T07:58:50;99457.40;;;0.56;79.73
61478;BME280;47345;52.334;10.392;2023-01-19T08:01:23;99463.91;;;0.59;79.65
61478;BME280;47345;52.334;10.392;2023-01-19T08:03:54;99464.71;;;0.62;79.50
61478;BME280;47345;52.334;10.392;2023-01-19T08:06:29;99464.69;;;0.65;79.47
61478;BME280;47345;52.334;10.392;2023-01-19T08:09:02;99466.80;;;0.69;79.45
61478;BME280;47345;52.334;10.392;2023-01-19T08:11:33;99469.73;;;0.71;79.26
61478;BME280;47345;52.334;10.392;2023-01-19T08:14:05;99468.44;;;0.75;79.54
61478;BME280;47345;52.334;10.392;2023-01-19T08:16:36;99471.31;;;0.78;79.17
61478;BME280;47345;52.334;10.392;2023-01-19T08:19:06;99469.06;;;0.81;78.95
61478;BME280;47345;52.334;10.392;2023-01-19T08:21:37;99467.10;;;0.82;78.91
61478;BME280;47345;52.334;10.392;2023-01-19T08:24:17;99471.29;;;0.85;78.95
61478;BME280;47345;52.334;10.392;2023-01-19T08:26:49;99470.86;;;0.85;78.61
61478;BME280;47345;52.334;10.392;2023-01-19T08:29:20;99469.94;;;0.87;78.58
61478;BME280;47345;52.334;10.392;2023-01-19T08:31:50;99472.27;;;0.89;78.72
61478;BME280;47345;52.334;10.392;2023-01-19T08:34:23;99473.98;;;0.91;78.59
61478;BME280;47345;52.334;10.392;2023-01-19T08:36:54;99475.19;;;0.92;78.51
61478;BME280;47345;52.334;10.392;2023-01-19T08:39:25;99467.77;;;0.91;78.38
61478;BME280;47345;52.334;10.392;2023-01-19T08:41:55;99464.98;;;0.88;78.24
61478;BME280;47345;52.334;10.392;2023-01-19T08:44:27;99468.19;;;0.85;78.15
61478;BME280;47345;52.334;10.392;2023-01-19T08:46:58;99470.39;;;0.83;78.19
61478;BME280;47345;52.334;10.392;2023-01-19T08:49:28;99472.19;;;0.80;78.25
61478;BME280;47345;52.334;10.392;2023-01-19T08:51:59;99473.56;;;0.79;78.36
61478;BME280;47345;52.334;10.392;2023-01-19T08:54:31;99473.91;;;0.78;78.31
61478;BME280;47345;52.334;10.392;2023-01-19T08:57:01;99478.70;;;0.77;78.57
61478;BME280;47345;52.334;10.392;2023-01-19T08:59:32;99482.16;;;0.76;78.49
61478;BME280;47345;52.334;10.392;2023-01-19T09:02:03;99478.44;;;0.76;78.59
61478;BME280;47345;52.334;10.392;2023-01-19T09:04:33;99486.33;;;0.76;78.66
61478;BME280;47345;52.334;10.392;2023-01-19T09:07:04;99491.05;;;0.75;78.61
61478;BME280;47345;52.334;10.392;2023-01-19T09:09:39;99486.66;;;0.76;78.62
61478;BME280;47345;52.334;10.392;2023-01-19T09:12:11;99485.19;;;0.76;78.82
61478;BME280;47345;52.334;10.392;2023-01-19T09:14:42;99487.91;;;0.77;78.79
61478;BME280;47345;52.334;10.392;2023-01-19T09:17:12;99485.38;;;0.79;78.84
61478;BME280;47345;52.334;10.392;2023-01-19T09:19:46;99492.56;;;0.82;78.99
61478;BME280;47345;52.334;10.392;2023-01-19T09:22:16;99492.95;;;0.87;79.17
61478;BME280;47345;52.334;10.392;2023-01-19T09:24:47;99496.50;;;0.94;79.21
61478;BME280;47345;52.334;10.392;2023-01-19T09:27:18;99499.09;;;1.01;79.05
61478;BME280;47345;52.334;10.392;2023-01-19T09:29:48;99498.47;;;1.08;79.20
61478;BME280;47345;52.334;10.392;2023-01-19T09:32:22;99504.63;;;1.15;79.05
61478;BME280;47345;52.334;10.392;2023-01-19T09:34:53;99510.31;;;1.24;78.94
61478;BME280;47345;52.334;10.392;2023-01-19T09:37:24;99517.62;;;1.30;78.89
61478;BME280;47345;52.334;10.392;2023-01-19T09:39:55;99518.48;;;1.37;78.61
61478;BME280;47345;52.334;10.392;2023-01-19T09:42:30;99521.29;;;1.42;78.62
61478;BME280;47345;52.334;10.392;2023-01-19T09:45:05;99522.31;;;1.48;78.49
61478;BME280;47345;52.334;10.392;2023-01-19T09:47:40;99523.77;;;1.53;78.50
61478;BME280;47345;52.334;10.392;2023-01-19T09:50:18;99520.33;;;1.57;78.31
61478;BME280;47345;52.334;10.392;2023-01-19T09:52:56;99519.98;;;1.62;78.31
61478;BME280;47345;52.334;10.392;2023-01-19T09:55:30;99516.89;;;1.65;78.33
61478;BME280;47345;52.334;10.392;2023-01-19T09:58:01;99516.32;;;1.68;77.97
61478;BME280;47345;52.334;10.392;2023-01-19T10:00:33;99518.00;;;1.71;77.98
61478;BME280;47345;52.334;10.392;2023-01-19T10:03:13;99519.76;;;1.74;77.97
61478;BME280;47345;52.334;10.392;2023-01-19T10:05:47;99519.54;;;1.78;77.80
61478;BME280;47345;52.334;10.392;2023-01-19T10:08:24;99525.03;;;1.82;77.76
61478;BME280;47345;52.334;10.392;2023-01-19T10:11:00;99523.04;;;1.87;77.66
61478;BME280;47345;52.334;10.392;2023-01-19T10:13:35;99529.27;;;1.92;77.73
61478;BME280;47345;52.334;10.392;2023-01-19T10:16:19;99526.75;;;1.97;77.81
61478;BME280;47345;52.334;10.392;2023-01-19T10:18:56;99526.83;;;2.02;77.27
61478;BME280;47345;52.334;10.392;2023-01-19T10:21:32;99522.63;;;2.05;77.34
61478;BME280;47345;52.334;10.392;2023-01-19T10:24:05;99525.02;;;2.10;77.11
61478;BME280;47345;52.334;10.392;2023-01-19T10:26:44;99516.48;;;2.13;76.70
61478;BME280;47345;52.334;10.392;2023-01-19T10:29:23;99517.94;;;2.16;77.08
61478;BME280;47345;52.334;10.392;2023-01-19T10:32:02;99519.58;;;2.20;77.08
61478;BME280;47345;52.334;10.392;2023-01-19T10:34:33;99519.66;;;2.25;77.03
61478;BME280;47345;52.334;10.392;2023-01-19T10:37:14;99521.36;;;2.28;76.77
61478;BME280;47345;52.334;10.392;2023-01-19T10:39:51;99524.08;;;2.31;76.70
61478;BME280;47345;52.334;10.392;2023-01-19T10:42:22;99524.20;;;2.36;76.78
61478;BME280;47345;52.334;10.392;2023-01-19T10:44:52;99524.77;;;2.41;76.39
61478;BME280;47345;52.334;10.392;2023-01-19T10:47:34;99526.05;;;2.47;76.92
61478;BME280;47345;52.334;10.392;2023-01-19T10:50:23;99524.88;;;2.51;76.28
61478;BME280;47345;52.334;10.392;2023-01-19T10:52:55;99528.48;;;2.54;76.35
61478;BME280;47345;52.334;10.392;2023-01-19T10:55:28;99531.71;;;2.55;76.25
61478;BME280;47345;52.334;10.392;2023-01-19T10:58:00;99525.98;;;2.56;76.24
61478;BME280;47345;52.334;10.392;2023-01-19T11:00:34;99527.02;;;2.58;76.37
61478;BME280;47345;52.334;10.392;2023-01-19T11:03:22;99530.69;;;2.59;76.15
61478;BME280;47345;52.334;10.392;2023-01-19T11:05:53;99525.14;;;2.60;76.29
61478;BME280;47345;52.334;10.392;2023-01-19T11:08:45;99526.27;;;2.63;76.49
61478;BME280;47345;52.334;10.392;2023-01-19T11:11:17;99523.74;;;2.64;76.25
61478;BME280;47345;52.334;10.392;2023-01-19T11:14:03;99526.61;;;2.64;76.51
61478;BME280;47345;52.334;10.392;2023-01-19T11:16:37;99526.44;;;2.68;76.44
61478;BME280;47345;52.334;10.392;2023-01-19T11:19:19;99530.23;;;2.70;76.84
61478;BME280;47345;52.334;10.392;2023-01-19T11:21:51;99533.41;;;2.74;76.66
61478;BME280;47345;52.334;10.392;2023-01-19T11:24:23;99531.39;;;2.74;76.75
61478;BME280;47345;52.334;10.392;2023-01-19T11:26:57;99540.24;;;2.74;76.72
61478;BME280;47345;52.334;10.392;2023-01-19T11:29:31;99535.14;;;2.74;76.81
61478;BME280;47345;52.334;10.392;2023-01-19T11:32:14;99534.50;;;2.74;77.19
61478;BME280;47345;52.334;10.392;2023-01-19T11:34:48;99532.32;;;2.73;77.38
61478;BME280;47345;52.334;10.392;2023-01-19T11:37:30;99532.33;;;2.72;77.45
61478;BME280;47345;52.334;10.392;2023-01-19T11:40:08;99532.33;;;2.75;77.69
61478;BME280;47345;52.334;10.392;2023-01-19T11:42:42;99529.65;;;2.80;77.59
61478;BME280;47345;52.334;10.392;2023-01-19T11:45:16;99531.27;;;2.84;77.56
61478;BME280;47345;52.334;10.392;2023-01-19T11:47:49;99534.02;;;2.87;77.29
61478;BME280;47345;52.334;10.392;2023-01-19T11:50:24;99537.36;;;2.91;77.36
61478;BME280;47345;52.334;10.392;2023-01-19T11:53:00;99541.15;;;2.92;77.10
61478;BME280;47345;52.334;10.392;2023-01-19T11:55:39;99542.42;;;2.93;77.36
61478;BME280;47345;52.334;10.392;2023-01-19T11:58:14;99539.77;;;2.94;77.27
61478;BME280;47345;52.334;10.392;2023-01-19T12:00:49;99540.11;;;2.94;77.10
61478;BME280;47345;52.334;10.392;2023-01-19T12:03:24;99545.33;;;2.93;77.27
61478;BME280;47345;52.334;10.392;2023-01-19T12:06:02;99541.57;;;2.91;77.51
61478;BME280;47345;52.334;10.392;2023-01-19T12:08:36;99541.39;;;2.90;77.29
61478;BME280;47345;52.334;10.392;2023-01-19T12:11:11;99541.73;;;2.88;77.43
61478;BME280;47345;52.334;10.392;2023-01-19T12:13:45;99536.64;;;2.87;77.45
61478;BME280;47345;52.334;10.392;2023-01-19T12:16:21;99538.72;;;2.90;77.40
61478;BME280;47345;52.334;10.392;2023-01-19T12:18:54;99540.30;;;2.93;77.76
61478;BME280;47345;52.334;10.392;2023-01-19T12:21:25;99542.02;;;2.97;77.89
61478;BME280;47345;52.334;10.392;2023-01-19T12:24:04;99543.98;;;3.01;78.27
61478;BME280;47345;52.334;10.392;2023-01-19T12:26:45;99545.21;;;3.06;77.91
61478;BME280;47345;52.334;10.392;2023-01-19T12:29:21;99546.28;;;3.11;77.78
61478;BME280;47345;52.334;10.392;2023-01-19T12:32:17;99548.89;;;3.15;77.94
61478;BME280;47345;52.334;10.392;2023-01-19T12:34:48;99551.09;;;3.17;77.81
61478;BME280;47345;52.334;10.392;2023-01-19T12:37:33;99555.98;;;3.20;77.48
61478;BME280;47345;52.334;10.392;2023-01-19T12:40:20;99557.52;;;3.20;77.41
61478;BME280;47345;52.334;10.392;2023-01-19T12:42:57;99558.77;;;3.19;77.60
61478;BME280;47345;52.334;10.392;2023-01-19T12:45:32;99560.43;;;3.20;77.37
61478;BME280;47345;52.334;10.392;2023-01-19T12:48:04;99564.30;;;3.21;77.74
61478;BME280;47345;52.334;10.392;2023-01-19T12:50:39;99567.39;;;3.21;77.73
61478;BME280;47345;52.334;10.392;2023-01-19T12:53:19;99565.48;;;3.21;77.60
61478;BME280;47345;52.334;10.392;2023-01-19T12:55:59;99566.79;;;3.23;77.45
61478;BME280;47345;52.334;10.392;2023-01-19T12:58:34;99571.54;;;3.24;77.67
61478;BME280;47345;52.334;10.392;2023-01-19T13:01:16;99569.05;;;3.25;77.71
61478;BME280;47345;52.334;10.392;2023-01-19T13:04:17;99574.04;;;3.27;77.98
61478;BME280;47345;52.334;10.392;2023-01-19T13:07:10;99578.52;;;3.30;78.05
61478;BME280;47345;52.334;10.392;2023-01-19T13:09:46;99582.80;;;3.32;78.67
61478;BME280;47345;52.334;10.392;2023-01-19T13:12:23;99587.59;;;3.34;79.43
61478;BME280;47345;52.334;10.392;2023-01-19T13:15:27;99588.20;;;3.35;79.94
61478;BME280;47345;52.334;10.392;2023-01-19T13:17:58;99587.67;;;3.36;80.52
61478;BME280;47345;52.334;10.392;2023-01-19T13:20:32;99590.90;;;3.38;80.74
61478;BME280;47345;52.334;10.392;2023-01-19T13:23:21;99591.98;;;3.38;80.99
61478;BME280;47345;52.334;10.392;2023-01-19T13:26:04;99593.75;;;3.37;81.18
61478;BME280;47345;52.334;10.392;2023-01-19T13:28:39;99595.23;;;3.35;81.33
61478;BME280;47345;52.334;10.392;2023-01-19T13:31:11;99595.31;;;3.33;81.56